createdAt,value
2018-10-02T00:00:04.305Z,47.10
2018-10-02T00:00:35.407Z,46.08
2018-10-02T00:01:06.557Z,46.92
2018-10-02T00:01:37.680Z,46.80
2018-10-02T00:02:08.820Z,47.40
2018-10-02T00:02:39.975Z,45.75
2018-10-02T00:03:11.076Z,43.85
2018-10-02T00:03:42.185Z,43.85
2018-10-02T00:04:13.300Z,45.45
2018-10-02T00:04:44.393Z,43.02
2018-10-02T00:05:15.502Z,44.55
2018-10-02T00:05:46.614Z,44.73
2018-10-02T00:06:17.733Z,44.42
2018-10-02T00:06:48.840Z,44.95
2018-10-02T00:07:19.977Z,46.60
2018-10-02T00:07:51.111Z,44.65
2018-10-02T00:08:22.210Z,45.10
2018-10-02T00:08:53.340Z,45.50
2018-10-02T00:09:24.477Z,42.98
2018-10-02T00:09:55.569Z,44.73
2018-10-02T00:10:26.680Z,45.10
2018-10-02T00:10:57.794Z,45.78
2018-10-02T00:11:28.930Z,43.30
2018-10-02T00:12:00.033Z,42.48
2018-10-02T00:12:31.149Z,41.00
2018-10-02T00:13:02.246Z,41.02
2018-10-02T00:13:33.347Z,42.60
2018-10-02T00:14:04.501Z,40.92
2018-10-02T00:14:35.616Z,39.42
2018-10-02T00:15:06.769Z,39.83
2018-10-02T00:15:37.911Z,37.67
2018-10-02T00:16:09.028Z,38.75
2018-10-02T00:16:40.176Z,37.45
2018-10-02T00:17:11.332Z,36.60
2018-10-02T00:17:42.444Z,36.23
2018-10-02T00:18:13.542Z,34.85
2018-10-02T00:18:44.645Z,34.90
2018-10-02T00:19:15.755Z,34.25
2018-10-02T00:19:46.856Z,37.70
2018-10-02T00:20:18.022Z,37.42
2018-10-02T00:20:49.123Z,36.68
2018-10-02T00:21:20.278Z,36.70
2018-10-02T00:21:51.387Z,36.95
2018-10-02T00:22:22.557Z,39.38
2018-10-02T00:22:53.649Z,38.17
2018-10-02T00:23:24.770Z,38.10
2018-10-02T00:23:55.892Z,39.63
2018-10-02T00:24:26.997Z,39.30
2018-10-02T00:24:58.104Z,40.65
2018-10-02T00:25:29.262Z,41.18
2018-10-02T00:26:00.418Z,40.43
2018-10-02T00:26:31.525Z,42.13
2018-10-02T00:27:02.673Z,41.35
2018-10-02T00:27:33.789Z,42.20
2018-10-02T00:28:04.935Z,42.70
2018-10-02T00:28:36.051Z,41.00
2018-10-02T00:29:07.162Z,40.92
2018-10-02T00:29:38.294Z,43.15
2018-10-02T00:30:09.453Z,41.73
2018-10-02T00:30:40.634Z,43.45
2018-10-02T00:31:11.749Z,40.65
2018-10-02T00:31:42.894Z,39.90
2018-10-02T00:32:14.137Z,41.53
2018-10-02T00:32:45.196Z,42.45
2018-10-02T00:33:16.320Z,44.60
2018-10-02T00:33:47.439Z,43.65
2018-10-02T00:34:18.545Z,43.85
2018-10-02T00:34:49.653Z,45.43
2018-10-02T00:35:20.746Z,44.98
2018-10-02T00:35:51.893Z,45.70
2018-10-02T00:36:23.024Z,45.12
2018-10-02T00:36:54.122Z,49.23
2018-10-02T00:37:25.253Z,47.90
2018-10-02T00:37:56.402Z,47.53
2018-10-02T00:38:27.503Z,47.17
2018-10-02T00:38:58.635Z,47.90
2018-10-02T00:39:29.765Z,48.60
2018-10-02T00:40:00.857Z,49.75
2018-10-02T00:40:31.977Z,50.48
2018-10-02T00:41:03.086Z,51.68
2018-10-02T00:41:34.217Z,51.37
2018-10-02T00:42:05.406Z,49.35
2018-10-02T00:42:36.625Z,48.75
2018-10-02T00:43:07.750Z,48.73
2018-10-02T00:43:38.855Z,49.73
2018-10-02T00:44:09.962Z,52.83
2018-10-02T00:44:41.105Z,51.28
2018-10-02T00:45:12.219Z,52.55
2018-10-02T00:45:43.335Z,52.90
2018-10-02T00:46:14.439Z,53.40
2018-10-02T00:46:45.581Z,52.70
2018-10-02T00:47:16.700Z,55.03
2018-10-02T00:47:47.810Z,53.83
2018-10-02T00:48:18.913Z,54.88
2018-10-02T00:48:50.030Z,57.20
2018-10-02T00:49:21.122Z,59.83
2018-10-02T00:49:52.270Z,52.55
2018-10-02T00:50:23.368Z,58.42
2018-10-02T00:50:54.514Z,57.48
2018-10-02T00:51:25.633Z,57.73
2018-10-02T00:51:56.743Z,56.65
2018-10-02T00:52:27.863Z,57.23
2018-10-02T00:52:59.025Z,55.60
2018-10-02T00:53:30.166Z,58.28
2018-10-02T00:54:01.279Z,58.70
2018-10-02T00:54:32.390Z,59.60
2018-10-02T00:55:03.490Z,58.10
2018-10-02T00:55:34.637Z,57.80
2018-10-02T00:56:05.767Z,56.73
2018-10-02T00:56:36.894Z,57.45
2018-10-02T00:57:07.994Z,58.80
2018-10-02T00:57:39.087Z,57.80
2018-10-02T00:58:10.197Z,58.70
2018-10-02T00:58:41.309Z,59.95
2018-10-02T00:59:12.431Z,55.75
2018-10-02T00:59:43.583Z,56.75
2018-10-02T01:00:14.704Z,50.95
2018-10-02T01:00:45.837Z,55.95
2018-10-02T01:01:16.955Z,52.13
2018-10-02T01:01:48.054Z,53.92
2018-10-02T01:02:19.176Z,55.20
2018-10-02T01:02:50.314Z,55.75
2018-10-02T01:03:21.463Z,52.35
2018-10-02T01:03:52.569Z,48.05
2018-10-02T01:04:23.686Z,53.58
2018-10-02T01:04:54.815Z,52.73
2018-10-02T01:05:26.098Z,48.13
2018-10-02T01:05:57.207Z,49.03
2018-10-02T01:06:28.339Z,48.73
2018-10-02T01:06:59.492Z,47.15
2018-10-02T01:07:30.621Z,48.65
2018-10-02T01:08:01.731Z,49.13
2018-10-02T01:08:32.835Z,46.42
2018-10-02T01:09:03.936Z,47.25
2018-10-02T01:09:35.039Z,43.25
2018-10-02T01:10:06.180Z,46.15
2018-10-02T01:10:37.337Z,42.30
2018-10-02T01:11:08.442Z,41.95
2018-10-02T01:11:39.577Z,44.45
2018-10-02T01:12:10.678Z,42.83
2018-10-02T01:12:41.798Z,42.90
2018-10-02T01:13:12.959Z,42.10
2018-10-02T01:13:44.068Z,44.73
2018-10-02T01:14:15.213Z,44.75
2018-10-02T01:14:46.425Z,44.40
2018-10-02T01:15:17.546Z,41.30
2018-10-02T01:15:48.663Z,43.20
2018-10-02T01:16:19.816Z,45.28
2018-10-02T01:16:50.922Z,44.80
2018-10-02T01:17:22.018Z,44.42
2018-10-02T01:17:53.137Z,45.25
2018-10-02T01:18:24.243Z,46.05
2018-10-02T01:18:55.393Z,45.95
2018-10-02T01:19:26.526Z,43.42
2018-10-02T01:19:57.647Z,44.10
2018-10-02T01:20:28.754Z,43.78
2018-10-02T01:20:59.929Z,44.77
2018-10-02T01:21:31.027Z,41.55
2018-10-02T01:22:02.158Z,42.23
2018-10-02T01:22:33.261Z,41.73
2018-10-02T01:23:04.376Z,44.98
2018-10-02T01:23:35.503Z,43.75
2018-10-02T01:24:06.662Z,44.33
2018-10-02T01:24:37.771Z,44.67
2018-10-02T01:25:08.888Z,43.17
2018-10-02T01:25:39.994Z,40.98
2018-10-02T01:26:11.105Z,41.15
2018-10-02T01:26:42.233Z,41.28
2018-10-02T01:27:13.352Z,40.45
2018-10-02T01:27:44.516Z,39.67
2018-10-02T01:28:15.618Z,37.08
2018-10-02T01:28:46.762Z,38.05
2018-10-02T01:29:17.927Z,35.58
2018-10-02T01:29:49.038Z,37.58
2018-10-02T01:30:20.185Z,37.03
2018-10-02T01:30:51.315Z,37.90
2018-10-02T01:31:22.424Z,37.93
2018-10-02T01:31:53.549Z,37.35
2018-10-02T01:32:24.686Z,36.68
2018-10-02T01:32:55.795Z,36.53
2018-10-02T01:33:26.904Z,36.50
2018-10-02T01:33:58.054Z,36.88
2018-10-02T01:34:29.202Z,34.85
2018-10-02T01:35:00.348Z,33.20
2018-10-02T01:35:31.489Z,34.05
2018-10-02T01:36:02.614Z,33.78
2018-10-02T01:36:33.752Z,34.20
2018-10-02T01:37:04.863Z,32.80
2018-10-02T01:37:35.985Z,32.67
2018-10-02T01:38:07.102Z,33.02
2018-10-02T01:38:38.215Z,32.53
2018-10-02T01:39:09.318Z,32.33
2018-10-02T01:39:40.484Z,32.67
2018-10-02T01:40:11.618Z,31.35
2018-10-02T01:40:42.732Z,30.55
2018-10-02T01:41:13.857Z,31.93
2018-10-02T01:41:44.961Z,32.20
2018-10-02T01:42:16.089Z,31.48
2018-10-02T01:42:47.206Z,30.95
2018-10-02T01:43:18.362Z,31.55
2018-10-02T01:43:49.502Z,30.17
2018-10-02T01:44:20.625Z,31.73
2018-10-02T01:44:51.812Z,30.52
2018-10-02T01:45:23.254Z,30.45
2018-10-02T01:45:54.380Z,28.50
2018-10-02T01:46:25.483Z,28.75
2018-10-02T01:46:56.588Z,28.32
2018-10-02T01:47:27.699Z,29.50
2018-10-02T01:47:58.801Z,28.50
2018-10-02T01:48:29.921Z,28.52
2018-10-02T01:49:01.062Z,28.10
2018-10-02T01:49:32.166Z,27.37
2018-10-02T01:50:03.333Z,27.27
2018-10-02T01:50:34.485Z,27.62
2018-10-02T01:51:05.641Z,27.00
2018-10-02T01:51:36.751Z,26.68
2018-10-02T01:52:07.868Z,26.60
2018-10-02T01:52:39.035Z,25.97
2018-10-02T01:53:10.151Z,29.20
2018-10-02T01:53:41.253Z,28.20
2018-10-02T01:54:12.354Z,29.40
2018-10-02T01:54:43.448Z,28.92
2018-10-02T01:55:14.559Z,29.45
2018-10-02T01:55:45.661Z,30.32
2018-10-02T01:56:16.863Z,29.40
2018-10-02T01:56:47.978Z,28.15
2018-10-02T01:57:19.069Z,29.15
2018-10-02T01:57:50.193Z,28.60
2018-10-02T01:58:21.344Z,29.50
2018-10-02T01:58:52.473Z,29.52
2018-10-02T01:59:23.586Z,30.80
2018-10-02T01:59:54.694Z,30.00
2018-10-02T02:00:25.807Z,28.85
2018-10-02T02:00:56.947Z,30.02
2018-10-02T02:01:28.077Z,30.20
2018-10-02T02:01:59.186Z,29.45
2018-10-02T02:02:30.362Z,28.35
2018-10-02T02:03:01.467Z,28.38
2018-10-02T02:03:32.590Z,29.12
2018-10-02T02:04:03.710Z,29.72
2018-10-02T02:04:34.810Z,30.75
2018-10-02T02:05:05.927Z,29.67
2018-10-02T02:05:37.126Z,31.27
2018-10-02T02:06:08.252Z,29.95
2018-10-02T02:06:39.369Z,31.85
2018-10-02T02:07:10.485Z,31.27
2018-10-02T02:07:41.678Z,31.95
2018-10-02T02:08:12.801Z,33.88
2018-10-02T02:08:43.910Z,31.50
2018-10-02T02:09:15.019Z,31.12
2018-10-02T02:09:46.164Z,29.90
2018-10-02T02:10:17.276Z,30.02
2018-10-02T02:10:48.401Z,30.55
2018-10-02T02:11:19.504Z,30.88
2018-10-02T02:11:50.614Z,31.87
2018-10-02T02:12:21.722Z,31.00
2018-10-02T02:12:52.864Z,31.77
2018-10-02T02:13:23.976Z,32.93
2018-10-02T02:13:55.072Z,33.85
2018-10-02T02:14:26.179Z,35.52
2018-10-02T02:14:57.287Z,34.48
2018-10-02T02:15:28.401Z,34.80
2018-10-02T02:15:59.516Z,36.20
2018-10-02T02:16:30.628Z,34.03
2018-10-02T02:17:01.744Z,35.92
2018-10-02T02:17:32.895Z,37.38
2018-10-02T02:18:04.035Z,37.53
2018-10-02T02:18:35.178Z,35.73
2018-10-02T02:19:06.304Z,35.33
2018-10-02T02:19:37.403Z,35.95
2018-10-02T02:20:08.549Z,34.05
2018-10-02T02:20:39.647Z,35.20
2018-10-02T02:21:10.764Z,35.25
2018-10-02T02:21:41.901Z,34.38
2018-10-02T02:22:13.006Z,34.55
2018-10-02T02:22:44.125Z,34.00
2018-10-02T02:23:15.286Z,33.92
2018-10-02T02:23:46.393Z,35.43
2018-10-02T02:24:17.514Z,33.78
2018-10-02T02:24:48.667Z,33.38
2018-10-02T02:25:19.789Z,32.90
2018-10-02T02:25:50.908Z,32.03
2018-10-02T02:26:22.028Z,31.73
2018-10-02T02:26:53.137Z,32.42
2018-10-02T02:27:24.242Z,29.65
2018-10-02T02:27:55.363Z,32.35
2018-10-02T02:28:26.510Z,30.35
2018-10-02T02:28:57.640Z,31.05
2018-10-02T02:29:28.758Z,30.50
2018-10-02T02:29:59.861Z,29.67
2018-10-02T02:30:30.979Z,29.85
2018-10-02T02:31:02.110Z,27.85
2018-10-02T02:31:33.221Z,28.87
2018-10-02T02:32:04.332Z,28.92
2018-10-02T02:32:35.430Z,27.27
2018-10-02T02:33:06.566Z,28.55
2018-10-02T02:33:37.679Z,27.70
2018-10-02T02:34:08.789Z,28.07
2018-10-02T02:34:39.940Z,31.12
2018-10-02T02:35:11.071Z,27.37
2018-10-02T02:35:42.190Z,24.18
2018-10-02T02:36:13.290Z,24.27
2018-10-02T02:36:44.393Z,22.75
2018-10-02T02:37:15.504Z,24.57
2018-10-02T02:37:46.646Z,26.35
2018-10-02T02:38:17.774Z,25.32
2018-10-02T02:38:48.894Z,24.90
2018-10-02T02:39:19.998Z,23.55
2018-10-02T02:39:51.114Z,24.30
2018-10-02T02:40:22.237Z,23.65
2018-10-02T02:40:53.400Z,24.02
2018-10-02T02:41:24.562Z,24.27
2018-10-02T02:41:55.744Z,23.65
2018-10-02T02:42:26.866Z,23.57
2018-10-02T02:42:57.988Z,23.32
2018-10-02T02:43:29.095Z,23.75
2018-10-02T02:44:00.222Z,23.40
2018-10-02T02:44:31.334Z,23.60
2018-10-02T02:45:02.438Z,22.77
2018-10-02T02:45:33.606Z,23.62
2018-10-02T02:46:04.712Z,23.02
2018-10-02T02:46:35.830Z,22.95
2018-10-02T02:47:06.965Z,24.20
2018-10-02T02:47:38.086Z,22.80
2018-10-02T02:48:09.221Z,23.35
2018-10-02T02:48:40.324Z,23.80
2018-10-02T02:49:11.482Z,24.00
2018-10-02T02:49:42.607Z,23.95
2018-10-02T02:50:13.733Z,23.95
2018-10-02T02:50:44.870Z,23.05
2018-10-02T02:51:16.033Z,23.62
2018-10-02T02:51:47.127Z,22.93
2018-10-02T02:52:18.238Z,24.12
2018-10-02T02:52:49.346Z,24.63
2018-10-02T02:53:20.470Z,23.20
2018-10-02T02:53:51.575Z,23.10
2018-10-02T02:54:22.683Z,23.25
2018-10-02T02:54:53.817Z,23.07
2018-10-02T02:55:24.936Z,22.58
2018-10-02T02:55:56.052Z,22.30
2018-10-02T02:56:27.231Z,22.75
2018-10-02T02:56:58.360Z,22.20
2018-10-02T02:57:29.457Z,21.23
2018-10-02T02:58:00.560Z,22.50
2018-10-02T02:58:31.676Z,22.85
2018-10-02T02:59:02.777Z,21.35
2018-10-02T02:59:33.882Z,22.48
2018-10-02T03:00:04.985Z,20.75
2018-10-02T03:00:36.096Z,20.85
2018-10-02T03:01:07.192Z,21.73
2018-10-02T03:01:38.340Z,21.77
2018-10-02T03:02:09.451Z,20.15
2018-10-02T03:02:40.573Z,21.23
2018-10-02T03:03:11.684Z,21.40
2018-10-02T03:03:42.781Z,20.65
2018-10-02T03:04:13.889Z,20.32
2018-10-02T03:04:45.033Z,22.05
2018-10-02T03:05:16.136Z,22.00
2018-10-02T03:05:47.262Z,20.30
2018-10-02T03:06:18.429Z,20.92
2018-10-02T03:06:49.541Z,20.35
2018-10-02T03:07:20.637Z,20.35
2018-10-02T03:07:51.733Z,21.40
2018-10-02T03:08:22.867Z,21.52
2018-10-02T03:08:53.975Z,19.95
2018-10-02T03:09:25.151Z,21.25
2018-10-02T03:09:56.247Z,21.07
2018-10-02T03:10:27.358Z,21.55
2018-10-02T03:10:58.477Z,21.60
2018-10-02T03:11:29.588Z,20.00
2018-10-02T03:12:00.705Z,18.98
2018-10-02T03:12:31.835Z,19.42
2018-10-02T03:13:02.994Z,20.52
2018-10-02T03:13:34.131Z,20.05
2018-10-02T03:14:05.228Z,20.40
2018-10-02T03:14:36.332Z,20.52
2018-10-02T03:15:07.474Z,20.08
2018-10-02T03:15:38.594Z,20.72
2018-10-02T03:16:09.686Z,19.62
2018-10-02T03:16:40.837Z,18.85
2018-10-02T03:17:11.972Z,24.63
2018-10-02T03:17:43.088Z,23.00
2018-10-02T03:18:14.202Z,25.77
2018-10-02T03:18:45.309Z,26.15
2018-10-02T03:19:16.395Z,24.57
2018-10-02T03:19:47.506Z,21.10
2018-10-02T03:20:18.658Z,20.88
2018-10-02T03:20:49.770Z,18.80
2018-10-02T03:21:20.891Z,18.75
2018-10-02T03:21:52.192Z,20.43
2018-10-02T03:22:23.184Z,21.45
2018-10-02T03:22:54.303Z,22.27
2018-10-02T03:23:25.438Z,21.62
2018-10-02T03:23:56.548Z,21.87
2018-10-02T03:24:27.643Z,21.07
2018-10-02T03:24:58.739Z,21.40
2018-10-02T03:25:29.899Z,21.33
2018-10-02T03:26:01.026Z,21.97
2018-10-02T03:26:32.140Z,20.35
2018-10-02T03:27:03.258Z,21.62
2018-10-02T03:27:34.361Z,20.15
2018-10-02T03:28:05.473Z,19.12
2018-10-02T03:28:36.589Z,20.08
2018-10-02T03:29:07.731Z,19.87
2018-10-02T03:29:38.831Z,19.57
2018-10-02T03:30:09.935Z,18.15
2018-10-02T03:30:41.073Z,19.25
2018-10-02T03:31:12.184Z,17.50
2018-10-02T03:31:43.286Z,18.10
2018-10-02T03:32:14.387Z,19.40
2018-10-02T03:32:45.515Z,20.90
2018-10-02T03:33:16.619Z,22.25
2018-10-02T03:33:47.761Z,20.90
2018-10-02T03:34:18.873Z,22.00
2018-10-02T03:34:49.993Z,20.85
2018-10-02T03:35:21.100Z,21.00
2018-10-02T03:35:52.226Z,18.85
2018-10-02T03:36:23.379Z,19.80
2018-10-02T03:36:54.512Z,21.02
2018-10-02T03:37:25.635Z,21.17
2018-10-02T03:37:56.760Z,19.05
2018-10-02T03:38:27.941Z,18.82
2018-10-02T03:38:59.068Z,18.15
2018-10-02T03:39:30.268Z,17.37
2018-10-02T03:40:01.354Z,19.25
2018-10-02T03:40:32.460Z,17.23
2018-10-02T03:41:03.586Z,17.65
2018-10-02T03:41:34.707Z,18.95
2018-10-02T03:42:05.844Z,17.98
2018-10-02T03:42:37.033Z,17.75
2018-10-02T03:43:08.159Z,15.65
2018-10-02T03:43:39.295Z,14.70
2018-10-02T03:44:10.421Z,15.55
2018-10-02T03:44:41.526Z,14.60
2018-10-02T03:45:12.641Z,14.30
2018-10-02T03:45:43.799Z,14.05
2018-10-02T03:46:14.894Z,12.00
2018-10-02T03:46:45.990Z,12.23
2018-10-02T03:47:17.101Z,12.98
2018-10-02T03:47:48.204Z,12.18
2018-10-02T03:48:19.304Z,11.83
2018-10-02T03:48:50.509Z,11.40
2018-10-02T03:49:21.620Z,12.82
2018-10-02T03:49:52.731Z,14.47
2018-10-02T03:50:23.855Z,12.93
2018-10-02T03:50:54.953Z,12.90
2018-10-02T03:51:26.093Z,14.50
2018-10-02T03:51:57.219Z,12.45
2018-10-02T03:52:28.333Z,11.18
2018-10-02T03:52:59.437Z,9.50
2018-10-02T03:53:30.601Z,9.60
2018-10-02T03:54:01.730Z,9.75
2018-10-02T03:54:32.872Z,11.25
2018-10-02T03:55:04.002Z,16.48
2018-10-02T03:55:35.118Z,18.60
2018-10-02T03:56:06.235Z,17.55
2018-10-02T03:56:37.330Z,13.32
2018-10-02T03:57:08.444Z,11.70
2018-10-02T03:57:39.555Z,12.55
2018-10-02T03:58:10.726Z,12.33
2018-10-02T03:58:41.856Z,13.68
2018-10-02T03:59:12.965Z,17.57
2018-10-02T03:59:44.093Z,14.50
2018-10-02T04:00:15.254Z,11.12
2018-10-02T04:00:46.383Z,12.78
2018-10-02T04:01:17.485Z,15.40
2018-10-02T04:01:48.603Z,15.40
2018-10-02T04:02:19.713Z,15.18
2018-10-02T04:02:50.873Z,15.03
2018-10-02T04:03:22.133Z,14.05
2018-10-02T04:03:53.207Z,13.95
2018-10-02T04:04:24.335Z,13.22
2018-10-02T04:04:55.490Z,14.45
2018-10-02T04:05:26.591Z,15.25
2018-10-02T04:05:57.726Z,15.83
2018-10-02T04:06:28.821Z,11.50
2018-10-02T04:06:59.956Z,11.08
2018-10-02T04:07:31.092Z,11.50
2018-10-02T04:08:02.215Z,12.93
2018-10-02T04:08:33.353Z,13.48
2018-10-02T04:09:04.450Z,16.48
2018-10-02T04:09:35.599Z,17.90
2018-10-02T04:10:06.711Z,17.05
2018-10-02T04:10:37.897Z,16.75
2018-10-02T04:11:09.015Z,16.87
2018-10-02T04:11:40.132Z,17.45
2018-10-02T04:12:11.238Z,17.75
2018-10-02T04:12:42.345Z,18.45
2018-10-02T04:13:13.530Z,18.25
2018-10-02T04:13:44.594Z,17.73
2018-10-02T04:14:15.706Z,17.25
2018-10-02T04:14:46.832Z,16.93
2018-10-02T04:15:17.957Z,17.37
2018-10-02T04:15:49.101Z,16.27
2018-10-02T04:16:20.197Z,14.55
2018-10-02T04:16:51.306Z,14.05
2018-10-02T04:17:22.440Z,14.53
2018-10-02T04:17:53.537Z,15.00
2018-10-02T04:18:24.633Z,16.45
2018-10-02T04:18:55.758Z,17.80
2018-10-02T04:19:26.854Z,16.75
2018-10-02T04:19:57.989Z,15.05
2018-10-02T04:20:29.127Z,16.75
2018-10-02T04:21:00.268Z,18.27
2018-10-02T04:21:31.387Z,17.82
2018-10-02T04:22:02.507Z,19.80
2018-10-02T04:22:33.633Z,16.85
2018-10-02T04:23:04.741Z,15.68
2018-10-02T04:23:35.845Z,17.82
2018-10-02T04:24:06.950Z,18.12
2018-10-02T04:24:38.105Z,17.92
2018-10-02T04:25:09.230Z,20.27
2018-10-02T04:25:40.387Z,19.73
2018-10-02T04:26:11.523Z,17.57
2018-10-02T04:26:42.648Z,18.57
2018-10-02T04:27:13.781Z,19.65
2018-10-02T04:27:44.937Z,19.07
2018-10-02T04:28:16.117Z,18.62
2018-10-02T04:28:47.209Z,19.23
2018-10-02T04:29:18.373Z,20.75
2018-10-02T04:29:49.477Z,19.77
2018-10-02T04:30:20.595Z,19.20
2018-10-02T04:30:51.749Z,18.17
2018-10-02T04:31:22.855Z,18.87
2018-10-02T04:31:54.019Z,18.20
2018-10-02T04:32:25.145Z,18.40
2018-10-02T04:32:56.293Z,19.98
2018-10-02T04:33:27.408Z,18.00
2018-10-02T04:33:58.609Z,17.90
2018-10-02T04:34:29.709Z,17.32
2018-10-02T04:35:00.841Z,17.95
2018-10-02T04:35:31.954Z,18.52
2018-10-02T04:36:03.101Z,18.67
2018-10-02T04:36:34.216Z,19.50
2018-10-02T04:37:05.347Z,19.90
2018-10-02T04:37:36.456Z,19.67
2018-10-02T04:38:07.565Z,20.00
2018-10-02T04:38:38.688Z,19.92
2018-10-02T04:39:09.881Z,19.02
2018-10-02T04:39:41.017Z,19.42
2018-10-02T04:40:12.125Z,19.85
2018-10-02T04:40:43.219Z,19.90
2018-10-02T04:41:14.318Z,19.37
2018-10-02T04:41:45.432Z,19.25
2018-10-02T04:42:16.561Z,18.90
2018-10-02T04:42:47.678Z,18.80
2018-10-02T04:43:18.820Z,18.05
2018-10-02T04:43:49.924Z,17.98
2018-10-02T04:44:21.045Z,18.60
2018-10-02T04:44:52.171Z,18.45
2018-10-02T04:45:23.270Z,18.20
2018-10-02T04:45:54.379Z,17.90
2018-10-02T04:46:25.520Z,18.25
2018-10-02T04:46:56.677Z,17.57
2018-10-02T04:47:27.806Z,17.45
2018-10-02T04:47:58.955Z,18.57
2018-10-02T04:48:30.071Z,18.60
2018-10-02T04:49:01.208Z,19.12
2018-10-02T04:49:32.306Z,18.40
2018-10-02T04:50:03.441Z,17.77
2018-10-02T04:50:34.577Z,18.20
2018-10-02T04:51:05.766Z,18.62
2018-10-02T04:51:36.873Z,17.17
2018-10-02T04:52:07.981Z,19.30
2018-10-02T04:52:39.118Z,18.30
2018-10-02T04:53:10.220Z,19.23
2018-10-02T04:53:41.352Z,19.40
2018-10-02T04:54:12.479Z,18.25
2018-10-02T04:54:43.582Z,19.80
2018-10-02T04:55:14.743Z,20.20
2018-10-02T04:55:45.921Z,18.35
2018-10-02T04:56:17.074Z,18.80
2018-10-02T04:56:48.209Z,17.70
2018-10-02T04:57:19.319Z,19.00
2018-10-02T04:57:50.417Z,18.57
2018-10-02T04:58:21.526Z,18.40
2018-10-02T04:58:52.631Z,15.75
2018-10-02T04:59:23.754Z,17.57
2018-10-02T04:59:54.861Z,17.05
2018-10-02T05:00:26.016Z,18.48
2018-10-02T05:00:57.131Z,16.23
2018-10-02T05:01:28.291Z,16.50
2018-10-02T05:01:59.414Z,16.90
2018-10-02T05:02:30.525Z,17.27
2018-10-02T05:03:01.658Z,17.37
2018-10-02T05:03:32.776Z,17.75
2018-10-02T05:04:03.904Z,17.02
2018-10-02T05:04:35.027Z,16.73
2018-10-02T05:05:06.207Z,17.00
2018-10-02T05:05:37.317Z,16.87
2018-10-02T05:06:08.426Z,15.55
2018-10-02T05:06:39.545Z,15.40
2018-10-02T05:07:10.768Z,14.93
2018-10-02T05:07:41.882Z,11.60
2018-10-02T05:08:13.003Z,13.90
2018-10-02T05:08:44.152Z,13.98
2018-10-02T05:09:15.260Z,14.10
2018-10-02T05:09:46.452Z,14.03
2018-10-02T05:10:17.641Z,14.95
2018-10-02T05:10:48.752Z,15.55
2018-10-02T05:11:19.871Z,15.90
2018-10-02T05:11:50.984Z,14.95
2018-10-02T05:12:22.091Z,15.30
2018-10-02T05:12:53.204Z,16.30
2018-10-02T05:13:24.314Z,16.67
2018-10-02T05:13:55.447Z,16.30
2018-10-02T05:14:26.570Z,15.75
2018-10-02T05:14:57.717Z,15.80
2018-10-02T05:15:28.872Z,16.65
2018-10-02T05:16:00.008Z,16.48
2018-10-02T05:16:31.148Z,14.68
2018-10-02T05:17:02.249Z,15.95
2018-10-02T05:17:33.344Z,16.65
2018-10-02T05:18:04.508Z,15.43
2018-10-02T05:18:35.665Z,15.60
2018-10-02T05:19:06.806Z,15.20
2018-10-02T05:19:37.932Z,16.10
2018-10-02T05:20:09.034Z,15.15
2018-10-02T05:20:40.239Z,15.20
2018-10-02T05:21:11.335Z,16.48
2018-10-02T05:21:42.455Z,15.58
2018-10-02T05:22:13.555Z,14.80
2018-10-02T05:22:44.667Z,15.75
2018-10-02T05:23:15.798Z,14.47
2018-10-02T05:23:46.909Z,14.23
2018-10-02T05:24:18.016Z,13.08
2018-10-02T05:24:49.124Z,12.58
2018-10-02T05:25:20.235Z,12.07
2018-10-02T05:25:51.382Z,13.68
2018-10-02T05:26:22.534Z,13.98
2018-10-02T05:26:53.627Z,10.95
2018-10-02T05:27:24.828Z,10.75
2018-10-02T05:27:55.899Z,13.65
2018-10-02T05:28:27.014Z,13.18
2018-10-02T05:28:58.112Z,14.68
2018-10-02T05:29:29.270Z,14.63
2018-10-02T05:30:00.384Z,13.75
2018-10-02T05:30:31.495Z,13.03
2018-10-02T05:31:02.614Z,13.22
2018-10-02T05:31:33.786Z,12.85
2018-10-02T05:32:04.908Z,13.00
2018-10-02T05:32:36.026Z,12.05
2018-10-02T05:33:07.180Z,12.47
2018-10-02T05:33:38.372Z,12.37
2018-10-02T05:34:09.463Z,12.15
2018-10-02T05:34:40.620Z,12.40
2018-10-02T05:35:11.899Z,14.87
2018-10-02T05:35:42.890Z,14.83
2018-10-02T05:36:13.993Z,10.10
2018-10-02T05:36:45.142Z,12.03
2018-10-02T05:37:16.241Z,13.62
2018-10-02T05:37:47.368Z,14.65
2018-10-02T05:38:18.473Z,15.28
2018-10-02T05:38:49.589Z,16.05
2018-10-02T05:39:20.682Z,17.10
2018-10-02T05:39:51.842Z,16.90
2018-10-02T05:40:22.970Z,15.48
2018-10-02T05:40:54.093Z,16.10
2018-10-02T05:41:25.207Z,14.70
2018-10-02T05:41:56.344Z,14.83
2018-10-02T05:42:27.473Z,14.95
2018-10-02T05:42:58.568Z,15.15
2018-10-02T05:43:29.695Z,13.78
2018-10-02T05:44:00.805Z,13.32
2018-10-02T05:44:31.922Z,15.65
2018-10-02T05:45:03.024Z,16.42
2018-10-02T05:45:34.160Z,16.30
2018-10-02T05:46:05.277Z,16.00
2018-10-02T05:46:36.387Z,16.65
2018-10-02T05:47:07.507Z,15.30
2018-10-02T05:47:38.669Z,15.75
2018-10-02T05:48:09.771Z,15.30
2018-10-02T05:48:40.902Z,16.02
2018-10-02T05:49:12.016Z,14.60
2018-10-02T05:49:43.137Z,14.83
2018-10-02T05:50:14.244Z,14.78
2018-10-02T05:50:45.360Z,15.10
2018-10-02T05:51:16.484Z,13.78
2018-10-02T05:51:48.685Z,15.68
2018-10-02T05:52:19.855Z,15.25
2018-10-02T05:52:50.989Z,14.95
2018-10-02T05:53:22.088Z,13.78
2018-10-02T05:53:53.197Z,12.45
2018-10-02T05:54:24.313Z,14.47
2018-10-02T05:54:55.462Z,13.88
2018-10-02T05:55:26.573Z,14.25
2018-10-02T05:55:57.708Z,15.63
2018-10-02T05:56:28.840Z,16.50
2018-10-02T05:56:59.978Z,17.25
2018-10-02T05:57:31.082Z,15.60
2018-10-02T05:58:02.273Z,14.38
2018-10-02T05:58:33.379Z,15.28
2018-10-02T05:59:04.487Z,16.12
2018-10-02T05:59:35.600Z,15.55
2018-10-02T06:00:06.708Z,16.02
2018-10-02T06:00:37.892Z,17.40
2018-10-02T06:01:09.006Z,16.67
2018-10-02T06:01:40.138Z,18.00
2018-10-02T06:02:11.294Z,16.52
2018-10-02T06:02:42.415Z,18.25
2018-10-02T06:03:13.600Z,18.55
2018-10-02T06:03:44.786Z,17.45
2018-10-02T06:04:15.888Z,17.60
2018-10-02T06:04:47.006Z,18.45
2018-10-02T06:05:18.155Z,18.23
2018-10-02T06:05:49.301Z,17.82
2018-10-02T06:06:20.441Z,17.90
2018-10-02T06:06:51.564Z,16.73
2018-10-02T06:07:22.754Z,16.20
2018-10-02T06:07:53.908Z,15.58
2018-10-02T06:08:25.077Z,17.37
2018-10-02T06:08:56.214Z,17.55
2018-10-02T06:09:27.338Z,15.55
2018-10-02T06:09:58.486Z,15.48
2018-10-02T06:10:29.690Z,15.20
2018-10-02T06:11:00.850Z,15.03
2018-10-02T06:11:31.970Z,15.32
2018-10-02T06:12:03.154Z,14.20
2018-10-02T06:12:34.280Z,12.33
2018-10-02T06:13:05.436Z,12.30
2018-10-02T06:13:36.609Z,12.55
2018-10-02T06:14:07.723Z,13.28
2018-10-02T06:14:39.156Z,13.50
2018-10-02T06:15:10.316Z,13.65
2018-10-02T06:15:41.440Z,13.48
2018-10-02T06:16:12.578Z,11.78
2018-10-02T06:16:43.776Z,12.37
2018-10-02T06:17:14.923Z,11.90
2018-10-02T06:17:46.064Z,12.95
2018-10-02T06:18:17.351Z,11.53
2018-10-02T06:18:49.616Z,11.38
2018-10-02T06:19:20.707Z,11.73
2018-10-02T06:19:51.818Z,12.33
2018-10-02T06:20:22.968Z,12.43
2018-10-02T06:20:54.147Z,12.23
2018-10-02T06:21:25.273Z,12.40
2018-10-02T06:21:56.460Z,12.20
2018-10-02T06:22:27.589Z,12.28
2018-10-02T06:22:58.720Z,10.45
2018-10-02T06:23:29.851Z,11.60
2018-10-02T06:24:00.988Z,11.85
2018-10-02T06:24:32.146Z,11.12
2018-10-02T06:25:03.347Z,10.15
2018-10-02T06:25:34.471Z,10.03
2018-10-02T06:26:05.693Z,10.40
2018-10-02T06:26:36.805Z,10.43
2018-10-02T06:27:07.966Z,10.20
2018-10-02T06:27:39.181Z,11.25
2018-10-02T06:28:10.300Z,11.80
2018-10-02T06:28:41.413Z,10.95
2018-10-02T06:29:12.531Z,10.65
2018-10-02T06:29:43.650Z,11.43
2018-10-02T06:30:14.804Z,10.80
2018-10-02T06:30:45.905Z,11.35
2018-10-02T06:31:17.167Z,11.28
2018-10-02T06:31:48.294Z,10.23
2018-10-02T06:32:19.423Z,10.18
2018-10-02T06:32:50.626Z,9.68
2018-10-02T06:33:21.673Z,9.58
2018-10-02T06:33:52.870Z,10.63
2018-10-02T06:34:23.991Z,9.00
2018-10-02T06:34:55.098Z,9.50
2018-10-02T06:35:26.236Z,9.18
2018-10-02T06:35:57.368Z,9.18
2018-10-02T06:36:28.530Z,9.55
2018-10-02T06:36:59.792Z,9.53
2018-10-02T06:37:30.902Z,9.50
2018-10-02T06:38:02.225Z,8.90
2018-10-02T06:38:33.469Z,9.15
2018-10-02T06:39:04.559Z,9.35
2018-10-02T06:39:35.660Z,9.68
2018-10-02T06:40:06.852Z,9.15
2018-10-02T06:40:38.002Z,9.23
2018-10-02T06:41:09.130Z,8.50